createdAt,value
2023-01-07T00:01:39.627Z,102059.72
2023-01-07T00:04:08.389Z,102065.00
2023-01-07T00:07:06.898Z,102071.38
2023-01-07T00:09:35.065Z,102063.38
2023-01-07T00:12:03.059Z,102062.63
2023-01-07T00:14:31.033Z,102072.31
2023-01-07T00:16:58.614Z,102075.00
2023-01-07T00:19:28.293Z,102076.47
2023-01-07T00:21:55.871Z,102090.56
2023-01-07T00:24:23.564Z,102093.44
2023-01-07T00:26:51.169Z,102092.47
2023-01-07T00:29:19.463Z,102085.47
2023-01-07T00:31:47.195Z,102102.34
2023-01-07T00:34:14.968Z,102091.03
2023-01-07T00:36:44.700Z,102109.41
2023-01-07T00:39:15.833Z,102104.31
2023-01-07T00:42:03.440Z,102110.38
2023-01-07T00:44:32.281Z,102112.28
2023-01-07T00:47:00.398Z,102109.53
2023-01-07T00:49:28.176Z,102114.94
2023-01-07T00:51:55.797Z,102120.19
2023-01-07T00:54:23.914Z,102111.28
2023-01-07T00:56:51.510Z,102123.72
2023-01-07T00:59:19.631Z,102118.38
2023-01-07T01:01:47.755Z,102129.03
2023-01-07T01:04:15.559Z,102120.34
2023-01-07T01:07:59.406Z,102118.72
2023-01-07T01:10:28.903Z,102128.38
2023-01-07T01:13:49.885Z,102131.13
2023-01-07T01:16:18.896Z,102136.22
2023-01-07T01:18:46.739Z,102144.09
2023-01-07T01:21:15.349Z,102139.94
2023-01-07T01:23:43.372Z,102146.75
2023-01-07T01:26:18.107Z,102153.03
2023-01-07T01:28:46.032Z,102157.44
2023-01-07T01:31:20.063Z,102153.81
2023-01-07T01:33:54.410Z,102164.56
2023-01-07T01:36:22.809Z,102168.25
2023-01-07T01:53:30.626Z,102187.88
2023-01-07T02:01:13.795Z,102196.75
2023-01-07T02:04:11.764Z,102193.16
2023-01-07T02:07:07.806Z,102194.06
2023-01-07T02:09:38.089Z,102198.38
2023-01-07T02:18:07.606Z,102201.25
2023-01-07T02:35:03.327Z,102214.47
2023-01-07T03:11:48.008Z,102231.59
2023-01-07T03:14:20.719Z,102240.34
2023-01-07T03:18:23.083Z,102241.25
2023-01-07T03:26:37.775Z,102262.50
2023-01-07T03:48:44.145Z,102273.09
2023-01-07T03:51:11.884Z,102286.34
2023-01-07T03:53:39.571Z,102302.13
2023-01-07T04:21:12.992Z,102318.91
2023-01-07T05:08:07.308Z,102376.00
2023-01-07T05:10:35.862Z,102374.28
2023-01-07T05:19:04.262Z,102369.00
2023-01-07T05:21:40.325Z,102376.06
2023-01-07T05:24:09.018Z,102382.19
2023-01-07T05:26:38.441Z,102385.72
2023-01-07T05:30:20.815Z,102390.06
2023-01-07T05:33:40.879Z,102396.22
2023-01-07T05:40:59.011Z,102404.97
2023-01-07T05:43:53.993Z,102402.38
2023-01-07T05:50:54.224Z,102413.75
2023-01-07T05:53:23.273Z,102418.13
2023-01-07T05:55:56.777Z,102418.06
2023-01-07T05:58:33.509Z,102424.22
2023-01-07T06:15:17.826Z,102433.84
2023-01-07T06:17:45.582Z,102441.72
2023-01-07T06:36:16.839Z,102467.19
2023-01-07T06:48:16.820Z,102496.94
2023-01-07T06:50:44.758Z,102484.56
2023-01-07T06:53:12.723Z,102493.28
2023-01-07T06:55:40.484Z,102495.97
2023-01-07T06:58:08.382Z,102505.63
2023-01-07T07:00:36.040Z,102506.50
2023-01-07T07:07:39.845Z,102518.78
2023-01-07T07:10:08.576Z,102523.09
2023-01-07T07:12:55.631Z,102520.47
2023-01-07T07:15:32.071Z,102525.78
2023-01-07T07:18:00.180Z,102519.56
2023-01-07T07:20:27.999Z,102516.91
2023-01-07T07:22:55.544Z,102513.38
2023-01-07T07:25:23.085Z,102506.34
2023-01-07T07:27:50.872Z,102519.44
2023-01-07T07:30:18.515Z,102522.16
2023-01-07T07:32:46.560Z,102515.91
2023-01-07T07:35:14.234Z,102527.28
2023-01-07T07:37:41.923Z,102536.16
2023-01-07T07:40:10.986Z,102534.44
2023-01-07T07:43:10.169Z,102538.81
2023-01-07T07:45:26.874Z,102544.97
2023-01-07T07:47:55.961Z,102537.81
2023-01-07T07:50:23.552Z,102543.94
2023-01-07T07:52:51.143Z,102546.50
2023-01-07T07:55:20.017Z,102561.41
2023-01-07T07:57:54.788Z,102558.78
2023-01-07T08:00:23.099Z,102561.38
2023-01-07T08:02:50.746Z,102569.28
2023-01-07T08:05:18.420Z,102566.66
2023-01-07T08:07:45.968Z,102562.06
2023-01-07T08:10:13.567Z,102572.63
2023-01-07T08:12:42.162Z,102573.41
2023-01-07T08:15:12.706Z,102563.56
2023-01-07T08:17:40.401Z,102568.00
2023-01-07T08:20:08.425Z,102572.56
2023-01-07T08:22:39.482Z,102579.50
2023-01-07T08:25:07.513Z,102565.31
2023-01-07T08:27:35.267Z,102574.06
2023-01-07T08:30:02.899Z,102572.16
2023-01-07T08:32:30.610Z,102567.72
2023-01-07T08:34:58.341Z,102573.06
2023-01-07T08:37:25.988Z,102585.50
2023-01-07T08:39:53.517Z,102570.66
2023-01-07T08:42:21.241Z,102590.06
2023-01-07T08:44:48.958Z,102583.00
2023-01-07T08:47:17.843Z,102586.34
2023-01-07T08:49:45.477Z,102574.91
2023-01-07T08:52:13.044Z,102585.44
2023-01-07T08:54:40.583Z,102588.72
2023-01-07T08:57:08.295Z,102588.66
2023-01-07T08:59:35.987Z,102584.06
2023-01-07T09:02:03.719Z,102583.31
2023-01-07T09:04:31.931Z,102586.88
2023-01-07T09:06:59.682Z,102586.00
2023-01-07T09:09:28.705Z,102590.44
2023-01-07T09:11:56.554Z,102587.78
2023-01-07T09:14:26.327Z,102582.25
2023-01-07T09:16:54.268Z,102584.97
2023-01-07T09:19:22.035Z,102584.78
2023-01-07T09:21:51.406Z,102576.13
2023-01-07T09:24:19.027Z,102578.59
2023-01-07T09:26:46.711Z,102581.06
2023-01-07T09:29:14.275Z,102578.63
2023-01-07T09:31:42.050Z,102587.31
2023-01-07T09:34:09.943Z,102589.09
2023-01-07T09:36:37.539Z,102587.19
2023-01-07T09:39:05.329Z,102585.38
2023-01-07T09:41:42.520Z,102579.22
2023-01-07T09:44:35.443Z,102591.59
2023-01-07T09:47:03.969Z,102589.88
2023-01-07T09:49:33.181Z,102579.84
2023-01-07T09:52:06.638Z,102573.47
2023-01-07T09:54:37.198Z,102571.97
2023-01-07T09:57:05.120Z,102571.13
2023-01-07T09:59:33.585Z,102574.69
2023-01-07T10:02:20.255Z,102567.50
2023-01-07T10:05:20.315Z,102572.59
2023-01-07T10:08:29.086Z,102568.16
2023-01-07T10:11:23.268Z,102555.72
2023-01-07T10:14:00.903Z,102567.22
2023-01-07T10:16:49.065Z,102559.38
2023-01-07T10:19:44.202Z,102548.56
2023-01-07T10:22:18.837Z,102549.25
2023-01-07T10:24:48.394Z,102562.78
2023-01-07T10:27:16.667Z,102544.81
2023-01-07T10:29:50.965Z,102541.06
2023-01-07T10:32:21.097Z,102539.31
2023-01-07T10:34:50.353Z,102556.31
2023-01-07T10:37:32.138Z,102558.88
2023-01-07T10:40:20.881Z,102553.63
2023-01-07T10:43:10.098Z,102554.31
2023-01-07T10:46:01.574Z,102548.16
2023-01-07T10:48:41.546Z,102544.47
2023-01-07T10:51:23.689Z,102544.34
2023-01-07T10:54:03.318Z,102552.91
2023-01-07T10:56:41.752Z,102549.69
2023-01-07T10:59:15.673Z,102561.88
2023-01-07T11:01:46.165Z,102562.53
2023-01-07T11:04:20.253Z,102565.41
2023-01-07T11:06:58.688Z,102571.63
2023-01-07T11:09:34.758Z,102559.34
2023-01-07T11:12:25.325Z,102561.72
2023-01-07T11:14:53.722Z,102553.53
2023-01-07T11:17:30.380Z,102546.19
2023-01-07T11:19:57.950Z,102552.63
2023-01-07T11:22:25.729Z,102551.09
2023-01-07T11:24:54.055Z,102557.88
2023-01-07T11:27:23.586Z,102553.84
2023-01-07T11:29:59.075Z,102556.50
2023-01-07T11:32:34.890Z,102558.28
2023-01-07T11:35:04.415Z,102560.44
2023-01-07T11:37:39.590Z,102571.59
2023-01-07T11:40:13.148Z,102562.47
2023-01-07T11:42:48.144Z,102562.50
2023-01-07T11:45:31.276Z,102558.00
2023-01-07T11:48:06.253Z,102557.94
2023-01-07T11:50:49.878Z,102554.91
2023-01-07T11:53:17.335Z,102549.53
2023-01-07T11:56:06.462Z,102557.53
2023-01-07T11:58:38.997Z,102568.75
2023-01-07T12:01:12.761Z,102571.25
2023-01-07T12:03:43.646Z,102562.38
2023-01-07T12:06:23.343Z,102556.78
2023-01-07T12:08:56.348Z,102561.31
2023-01-07T12:11:29.547Z,102546.78
2023-01-07T12:14:09.963Z,102549.28
2023-01-07T12:16:39.039Z,102563.03
2023-01-07T12:19:07.476Z,102566.16
2023-01-07T12:21:47.169Z,102560.53
2023-01-07T12:24:36.586Z,102559.78
2023-01-07T12:27:19.411Z,102557.94
2023-01-07T12:30:12.134Z,102568.78
2023-01-07T12:33:01.900Z,102562.75
2023-01-07T12:35:37.973Z,102563.25
2023-01-07T12:38:14.504Z,102563.69
2023-01-07T12:40:43.483Z,102574.69
2023-01-07T12:43:18.697Z,102573.00
2023-01-07T12:46:03.076Z,102577.59
2023-01-07T12:48:38.901Z,102594.13
2023-01-07T12:55:20.996Z,102595.13
2023-01-07T12:58:31.329Z,102601.72
2023-01-07T13:01:28.305Z,102597.47
2023-01-07T13:04:22.940Z,102605.59
2023-01-07T13:07:20.293Z,102601.06
2023-01-07T13:09:58.878Z,102604.56
2023-01-07T13:12:45.698Z,102609.25
2023-01-07T13:15:15.252Z,102609.25
2023-01-07T13:17:43.889Z,102622.69
2023-01-07T13:20:15.253Z,102629.78
2023-01-07T13:22:54.587Z,102630.75
2023-01-07T13:25:43.595Z,102630.00
2023-01-07T13:28:51.703Z,102642.44
2023-01-07T13:31:50.295Z,102636.38
2023-01-07T13:34:55.536Z,102639.84
2023-01-07T13:37:41.260Z,102646.16
2023-01-07T13:40:27.487Z,102642.88
2023-01-07T13:42:57.755Z,102654.44
2023-01-07T13:45:27.415Z,102650.03
2023-01-07T13:47:57.364Z,102660.63
2023-01-07T13:50:42.902Z,102654.47
2023-01-07T13:53:16.403Z,102653.63
2023-01-07T13:55:46.255Z,102663.47
2023-01-07T13:58:33.275Z,102663.53
2023-01-07T14:01:07.923Z,102665.38
2023-01-07T14:03:38.125Z,102671.59
2023-01-07T14:06:20.916Z,102668.09
2023-01-07T14:08:52.075Z,102674.31
2023-01-07T14:11:29.715Z,102670.88
2023-01-07T14:14:04.360Z,102663.88
2023-01-07T14:16:38.799Z,102668.28
2023-01-07T14:19:11.462Z,102665.75
2023-01-07T14:22:00.435Z,102679.00
2023-01-07T14:25:02.229Z,102676.44
2023-01-07T14:27:55.221Z,102677.28
2023-01-07T14:30:33.541Z,102677.41
2023-01-07T14:33:05.416Z,102673.03
2023-01-07T14:35:39.808Z,102675.66
2023-01-07T14:38:27.368Z,102670.47
2023-01-07T14:41:09.235Z,102674.03
2023-01-07T14:43:40.949Z,102676.72
2023-01-07T14:46:24.244Z,102676.69
2023-01-07T14:49:03.793Z,102674.16
2023-01-07T14:52:02.653Z,102677.66
2023-01-07T14:54:57.896Z,102678.63
2023-01-07T14:58:01.412Z,102686.50
2023-01-07T15:00:54.664Z,102687.44
2023-01-07T15:04:03.536Z,102694.47
2023-01-07T15:06:35.644Z,102690.09
2023-01-07T15:09:34.489Z,102702.44
2023-01-07T15:12:23.365Z,102698.97
2023-01-07T15:15:27.206Z,102704.25
2023-01-07T15:17:55.073Z,102706.94
2023-01-07T15:20:24.521Z,102705.22
2023-01-07T15:23:14.030Z,102702.53
2023-01-07T15:26:08.065Z,102710.47
2023-01-07T15:28:47.704Z,102710.50
2023-01-07T15:31:34.337Z,102707.00
2023-01-07T15:34:15.309Z,102709.66
2023-01-07T15:36:48.282Z,102710.53
2023-01-07T15:39:26.797Z,102705.31
2023-01-07T15:41:55.165Z,102711.50
2023-01-07T15:44:29.434Z,102712.41
2023-01-07T15:46:57.329Z,102715.94
2023-01-07T15:49:26.549Z,102714.19
2023-01-07T15:51:57.028Z,102721.25
2023-01-07T15:54:24.873Z,102721.25
2023-01-07T15:56:54.417Z,102726.56
2023-01-07T15:59:31.425Z,102732.75
2023-01-07T16:02:06.699Z,102736.28
2023-01-07T16:04:37.292Z,102740.72
2023-01-07T16:07:05.193Z,102739.84
2023-01-07T16:09:34.311Z,102744.28
2023-01-07T16:12:02.640Z,102741.63
2023-01-07T16:14:35.776Z,102745.16
2023-01-07T16:17:16.626Z,102746.00
2023-01-07T16:19:44.547Z,102749.53
2023-01-07T16:22:16.519Z,102751.31
2023-01-07T16:24:51.723Z,102749.53
2023-01-07T16:27:27.517Z,102750.41
2023-01-07T16:29:56.513Z,102754.81
2023-01-07T16:32:24.053Z,102755.69
2023-01-07T16:34:57.680Z,102753.94
2023-01-07T16:37:25.264Z,102761.88
2023-01-07T16:39:52.874Z,102766.28
2023-01-07T16:42:23.294Z,102776.84
2023-01-07T16:44:51.072Z,102774.22
2023-01-07T16:47:28.551Z,102772.50
2023-01-07T16:50:14.675Z,102776.88
2023-01-07T16:52:53.501Z,102770.72
2023-01-07T16:56:02.653Z,102772.47
2023-01-07T16:58:43.646Z,102773.34
2023-01-07T17:01:12.777Z,102775.09
2023-01-07T17:03:59.972Z,102768.97
2023-01-07T17:06:29.246Z,102768.97
2023-01-07T17:08:59.741Z,102768.06
2023-01-07T17:11:27.448Z,102762.81
2023-01-07T17:13:55.331Z,102761.06
2023-01-07T17:16:30.582Z,102761.06
2023-01-07T17:19:17.686Z,102760.16
2023-01-07T17:21:45.332Z,102761.91
2023-01-07T17:24:39.276Z,102763.69
2023-01-07T17:27:16.587Z,102768.03
2023-01-07T17:29:44.339Z,102768.03
2023-01-07T17:32:14.896Z,102767.16
2023-01-07T17:35:18.290Z,102771.56
2023-01-07T17:37:46.205Z,102775.03
2023-01-07T17:40:14.537Z,102773.28
2023-01-07T17:43:00.957Z,102782.97
2023-01-07T17:45:29.466Z,102770.69
2023-01-07T17:47:58.914Z,102774.22
2023-01-07T17:50:30.585Z,102781.19
2023-01-07T17:52:58.441Z,102779.41
2023-01-07T17:55:28.271Z,102792.59
2023-01-07T17:57:55.936Z,102782.94
2023-01-07T18:00:26.906Z,102781.19
2023-01-07T18:02:54.710Z,102782.06
2023-01-07T18:05:23.831Z,102780.31
2023-01-07T18:07:52.628Z,102782.97
2023-01-07T18:10:26.743Z,102776.84
2023-01-07T18:12:55.176Z,102776.84
2023-01-07T18:15:25.279Z,102772.47
2023-01-07T18:17:53.198Z,102779.47
2023-01-07T18:20:21.636Z,102783.84
2023-01-07T18:22:50.624Z,102783.88
2023-01-07T18:25:20.930Z,102783.00
2023-01-07T18:27:49.565Z,102790.88
2023-01-07T18:30:18.623Z,102797.03
2023-01-07T18:32:46.570Z,102795.28
2023-01-07T18:35:14.790Z,102794.41
2023-01-07T18:37:42.815Z,102790.88
2023-01-07T18:40:10.931Z,102795.28
2023-01-07T18:42:39.742Z,102792.66
2023-01-07T18:45:07.855Z,102788.28
2023-01-07T18:47:38.227Z,102792.66
2023-01-07T18:50:34.880Z,102799.69
2023-01-07T18:53:03.040Z,102791.75
2023-01-07T18:55:31.529Z,102804.94
2023-01-07T18:57:59.213Z,102800.53
2023-01-07T19:00:26.901Z,102795.25
2023-01-07T19:02:54.597Z,102794.38
2023-01-07T19:05:22.605Z,102793.50
2023-01-07T19:07:50.612Z,102795.28
2023-01-07T19:10:18.732Z,102797.03
2023-01-07T19:12:46.486Z,102797.00
2023-01-07T19:15:14.162Z,102807.56
2023-01-07T19:17:42.075Z,102804.91
2023-01-07T19:20:10.465Z,102807.53
2023-01-07T19:22:39.267Z,102809.28
2023-01-07T19:25:07.326Z,102810.16
2023-01-07T19:27:35.122Z,102814.53
2023-01-07T19:30:02.950Z,102812.81
2023-01-07T19:32:31.028Z,102827.72
2023-01-07T19:39:35.441Z,102838.19
2023-01-07T19:42:03.853Z,102839.91
2023-01-07T19:44:31.574Z,102838.19
2023-01-07T19:46:59.579Z,102842.56
2023-01-07T19:49:29.986Z,102848.69
2023-01-07T19:51:57.920Z,102847.81
2023-01-07T19:54:26.020Z,102848.66
2023-01-07T19:56:59.111Z,102840.69
2023-01-07T19:59:26.829Z,102836.28
2023-01-07T20:01:56.271Z,102845.06
2023-01-07T20:04:24.397Z,102851.19
2023-01-07T20:06:52.069Z,102831.00
2023-01-07T20:09:21.117Z,102828.41
2023-01-07T20:11:48.881Z,102833.69
2023-01-07T20:14:17.071Z,102829.34
2023-01-07T20:16:45.100Z,102819.66
2023-01-07T20:19:12.917Z,102824.06
2023-01-07T20:21:41.239Z,102832.81
2023-01-07T20:24:09.237Z,102834.63
2023-01-07T20:26:38.440Z,102841.59
2023-01-07T20:29:06.299Z,102844.25
2023-01-07T20:31:34.028Z,102843.34
2023-01-07T20:34:02.640Z,102854.72
2023-01-07T20:36:32.719Z,102855.63
2023-01-07T20:39:06.168Z,102854.72
2023-01-07T20:41:34.565Z,102859.09
2023-01-07T20:44:03.833Z,102853.88
2023-01-07T20:46:34.827Z,102861.72
2023-01-07T20:49:02.788Z,102862.63
2023-01-07T20:51:30.745Z,102863.50
2023-01-07T20:53:58.532Z,102861.72
2023-01-07T20:56:32.528Z,102871.31
2023-01-07T20:59:01.171Z,102859.06
2023-01-07T21:01:29.865Z,102864.28
2023-01-07T21:03:57.743Z,102867.81
2023-01-07T21:06:25.341Z,102873.97
2023-01-07T21:08:53.153Z,102875.69
2023-01-07T21:11:22.077Z,102874.78
2023-01-07T21:13:50.227Z,102882.72
2023-01-07T21:16:18.010Z,102881.84
2023-01-07T21:18:45.747Z,102886.19
2023-01-07T21:21:19.125Z,102880.91
2023-01-07T21:23:47.951Z,102890.53
2023-01-07T21:26:15.837Z,102890.47
2023-01-07T21:28:44.485Z,102891.38
2023-01-07T21:31:15.742Z,102886.06
2023-01-07T21:33:43.596Z,102880.81
2023-01-07T21:36:15.918Z,102879.09
2023-01-07T21:38:43.762Z,102881.72
2023-01-07T21:41:16.054Z,102879.94
2023-01-07T21:43:46.524Z,102886.06
2023-01-07T21:46:14.781Z,102877.25
2023-01-07T21:48:46.685Z,102888.59
2023-01-07T21:51:19.705Z,102884.22
2023-01-07T21:53:47.575Z,102884.25
2023-01-07T21:56:16.497Z,102887.75
2023-01-07T21:58:47.549Z,102892.13
2023-01-07T22:01:16.313Z,102899.13
2023-01-07T22:03:48.720Z,102895.53
2023-01-07T22:06:33.648Z,102897.25
2023-01-07T22:09:08.908Z,102896.41
2023-01-07T22:11:38.761Z,102900.78
2023-01-07T22:14:06.570Z,102887.59
2023-01-07T22:16:34.428Z,102896.34
2023-01-07T22:19:02.215Z,102894.59
2023-01-07T22:21:30.218Z,102901.63
2023-01-07T22:23:57.928Z,102899.84
2023-01-07T22:26:25.759Z,102905.97
2023-01-07T22:28:54.737Z,102908.63
2023-01-07T22:31:41.640Z,102915.66
2023-01-07T22:34:10.513Z,102915.66
2023-01-07T22:37:01.907Z,102906.00
2023-01-07T22:39:55.845Z,102911.25
2023-01-07T22:42:30.506Z,102910.34
2023-01-07T22:45:01.104Z,102916.50
2023-01-07T22:47:36.023Z,102913.91
2023-01-07T22:50:04.291Z,102915.69
2023-01-07T22:52:32.631Z,102919.16
2023-01-07T22:55:00.655Z,102912.16
2023-01-07T22:57:28.638Z,102911.28
2023-01-07T22:59:58.312Z,102915.72
2023-01-07T23:02:26.907Z,102918.31
2023-01-07T23:04:54.680Z,102922.69
2023-01-07T23:07:22.379Z,102921.78
2023-01-07T23:09:52.377Z,102927.06
2023-01-07T23:12:20.165Z,102922.69
2023-01-07T23:14:47.935Z,102927.94
2023-01-07T23:17:15.646Z,102921.75
2023-01-07T23:19:43.315Z,102926.97
2023-01-07T23:22:11.012Z,102928.72
2023-01-07T23:24:39.380Z,102926.94
2023-01-07T23:27:07.700Z,102927.88
2023-01-07T23:29:36.027Z,102920.00
2023-01-07T23:32:03.852Z,102928.75
2023-01-07T23:34:32.384Z,102921.75
2023-01-07T23:37:00.167Z,102926.19
2023-01-07T23:39:28.397Z,102932.34
2023-01-07T23:41:56.188Z,102925.34
2023-01-07T23:44:23.910Z,102927.94
2023-01-07T23:46:51.785Z,102939.31
2023-01-07T23:49:19.569Z,102934.03
2023-01-07T23:51:47.318Z,102935.78
2023-01-07T23:54:15.034Z,102934.88
2023-01-07T23:56:42.912Z,102934.94
2023-01-07T23:59:10.632Z,102933.13
